Tortilla Flat, Arizona
Current Conditions -  °F | °C
As of 2:47 PM on Friday 28 Nov 2014 (Local Time) from KIWA Reporting Station
Clear Clear  
Wind Chill: 81°   Ceiling: Unl
Heat Index: 81°   Visibility: 45mi
Dew Point: 25°   Wind: 0mph
Humidity: 13%   Direction: NA
Pressure: 29.95"   Gusts: NA
Location:  33.53°N, 111.39°W
Report Text: KIWA 282147Z 00000KT 45SM SKC 27/M04 A2995
Loading
Personal Weather Stations






























Interactive Weather Map New forecast layout! Learn more

10-Day Weather Forecast

Advertisements
Track Severe Weather on mobile